Time;durP1;ratioP1;P1;durP2;ratioP2;P2;SDS_P1;SDS_P2;PMS_P1;PMS_P2;Temp;Humidity;BMP_temperature;BMP_pressure;BME280_temperature;BME280_humidity;BME280_pressure;Samples;Min_cycle;Max_cycle;Signal;HPM_P1;HPM_P2
2021/05/15 00:00:31;;;;;;;12.90;9.75;;;12.10;99.90;;;;;;5053834;28;20098;-80
2021/05/15 00:02:57;;;;;;;10.55;8.88;;;12.10;99.90;;;;;;5053704;28;20032;-79
2021/05/15 00:05:23;;;;;;;12.57;9.40;;;12.10;99.70;;;;;;5055725;28;20150;-80
2021/05/15 00:07:49;;;;;;;11.70;10.07;;;12.00;99.80;;;;;;5054208;28;20049;-79
2021/05/15 00:10:15;;;;;;;12.40;10.32;;;11.90;99.90;;;;;;5053934;28;20032;-80
2021/05/15 00:12:41;;;;;;;10.98;9.57;;;11.90;99.90;;;;;;5055992;28;20017;-80
2021/05/15 00:15:09;;;;;;;11.23;9.57;;;11.80;99.90;;;;;;5055588;28;20032;-80
2021/05/15 00:17:35;;;;;;;10.75;9.23;;;11.90;99.90;;;;;;5056875;28;20013;-79
2021/05/15 00:20:01;;;;;;;12.45;9.85;;;11.90;99.70;;;;;;5056146;28;20095;-80
2021/05/15 00:22:26;;;;;;;13.15;10.68;;;12.00;99.50;;;;;;5056749;28;20016;-79
2021/05/15 00:24:52;;;;;;;10.63;9.45;;;11.90;99.20;;;;;;5053817;28;20025;-80
2021/05/15 00:27:17;;;;;;;11.82;8.90;;;12.00;99.10;;;;;;5054396;28;20388;-79
2021/05/15 00:29:43;;;;;;;9.27;8.20;;;11.90;99.00;;;;;;5055785;28;20013;-79
2021/05/15 00:32:08;;;;;;;9.25;8.18;;;11.90;99.10;;;;;;5055413;28;20027;-79
2021/05/15 00:34:34;;;;;;;12.32;8.57;;;11.80;99.30;;;;;;5055317;28;20472;-79
2021/05/15 00:36:59;;;;;;;12.13;9.00;;;11.80;99.20;;;;;;5054622;28;20017;-79
2021/05/15 00:39:25;;;;;;;11.45;8.27;;;11.90;99.20;;;;;;5055151;28;20052;-79
2021/05/15 00:41:50;;;;;;;10.63;8.63;;;11.90;99.20;;;;;;5053441;28;20035;-80
2021/05/15 00:44:29;;;;;;;8.70;7.78;;;11.90;99.20;;;;;;5053277;28;20021;-80
2021/05/15 00:46:55;;;;;;;11.25;7.68;;;11.90;99.10;;;;;;5055142;28;20025;-79
2021/05/15 00:49:20;;;;;;;8.45;7.13;;;11.80;99.20;;;;;;5055753;28;20524;-79
2021/05/15 00:51:46;;;;;;;7.22;6.40;;;11.80;99.20;;;;;;5055961;28;20013;-80
2021/05/15 00:54:12;;;;;;;20.92;6.25;;;11.80;99.10;;;;;;5054138;28;20488;-79
2021/05/15 00:56:38;;;;;;;6.35;5.75;;;11.80;99.00;;;;;;5054885;28;20036;-79
2021/05/15 00:59:04;;;;;;;10.20;4.72;;;11.80;98.90;;;;;;5053335;28;20100;-80
2021/05/15 01:01:30;;;;;;;39.72;5.57;;;11.90;98.90;;;;;;5052978;28;20583;-79
2021/05/15 01:03:56;;;;;;;13.60;5.47;;;11.90;98.90;;;;;;5055247;28;20028;-79
2021/05/15 01:06:21;;;;;;;6.47;5.30;;;11.80;99.10;;;;;;5053661;28;20029;-80
2021/05/15 01:08:47;;;;;;;9.18;7.40;;;11.70;99.20;;;;;;5053746;28;20082;-79
2021/05/15 01:11:18;;;;;;;7.82;6.70;;;11.80;99.40;;;;;;5051252;28;20040;-79
2021/05/15 01:13:57;;;;;;;8.52;6.65;;;11.80;99.30;;;;;;5053825;28;20472;-79
2021/05/15 01:16:23;;;;;;;10.90;8.15;;;11.80;99.20;;;;;;5054555;28;20029;-80
2021/05/15 01:18:49;;;;;;;8.65;7.80;;;11.80;99.30;;;;;;5055404;28;20353;-79
2021/05/15 01:21:15;;;;;;;10.50;8.20;;;11.70;99.40;;;;;;5053758;28;20031;-79
2021/05/15 01:23:41;;;;;;;9.23;8.30;;;11.80;99.50;;;;;;5053318;28;20387;-80
2021/05/15 01:26:19;;;;;;;8.82;7.90;;;11.70;99.50;;;;;;5053550;28;20100;-79
2021/05/15 01:28:46;;;;;;;9.95;8.27;;;11.70;99.50;;;;;;5052486;28;20435;-80
2021/05/15 01:31:13;;;;;;;10.55;8.38;;;11.70;99.60;;;;;;5054770;28;20033;-79
2021/05/15 01:33:39;;;;;;;11.55;8.23;;;11.80;99.60;;;;;;5053089;28;20028;-79
2021/05/15 01:36:08;;;;;;;9.77;7.85;;;11.80;99.40;;;;;;5055336;28;20040;-79
2021/05/15 01:38:35;;;;;;;8.52;7.47;;;11.80;99.30;;;;;;5054533;28;20427;-79
2021/05/15 01:41:07;;;;;;;9.05;7.63;;;11.90;99.30;;;;;;5058098;28;20033;-80
2021/05/15 01:43:33;;;;;;;9.73;7.85;;;12.00;99.20;;;;;;5056713;28;20380;-79
2021/05/15 01:45:59;;;;;;;9.40;8.25;;;12.00;99.00;;;;;;5056303;28;20049;-79
2021/05/15 01:48:25;;;;;;;11.65;8.02;;;12.00;99.00;;;;;;5057179;28;20520;-80
2021/05/15 01:51:00;;;;;;;10.60;7.97;;;12.00;99.20;;;;;;5058171;28;20066;-80
2021/05/15 01:53:27;;;;;;;9.75;8.20;;;12.00;99.20;;;;;;5056494;28;20025;-79
2021/05/15 01:55:54;;;;;;;10.77;8.57;;;12.10;99.30;;;;;;5058726;28;20025;-80
2021/05/15 01:58:19;;;;;;;12.65;7.78;;;12.10;99.20;;;;;;5057792;28;20052;-80
2021/05/15 02:00:45;;;;;;;9.25;7.97;;;12.10;99.10;;;;;;5054994;28;20472;-80
2021/05/15 02:03:11;;;;;;;11.40;8.25;;;12.10;99.10;;;;;;5056177;28;20027;-80
2021/05/15 02:05:37;;;;;;;12.57;9.07;;;12.10;99.10;;;;;;5058137;28;20025;-80
2021/05/15 02:08:03;;;;;;;13.15;9.88;;;12.10;99.00;;;;;;5055330;28;20096;-80
2021/05/15 02:10:29;;;;;;;10.68;9.10;;;12.10;99.00;;;;;;5072018;28;20124;-79
2021/05/15 02:12:54;;;;;;;13.70;10.52;;;12.10;98.90;;;;;;5055686;28;20446;-80
2021/05/15 02:15:20;;;;;;;12.82;10.63;;;12.10;98.90;;;;;;5060459;28;20044;-80
2021/05/15 02:17:46;;;;;;;10.68;8.77;;;12.10;98.90;;;;;;5070799;28;20116;-80
2021/05/15 02:20:12;;;;;;;12.60;8.60;;;12.10;99.00;;;;;;5057010;28;20094;-79
2021/05/15 02:22:38;;;;;;;10.07;8.90;;;12.00;99.10;;;;;;5058083;28;20480;-80
2021/05/15 02:25:04;;;;;;;10.93;9.05;;;12.00;99.10;;;;;;5056240;28;20021;-80
2021/05/15 02:27:29;;;;;;;14.32;9.82;;;12.00;99.20;;;;;;5056325;28;20024;-79
2021/05/15 02:29:55;;;;;;;11.73;9.77;;;12.00;99.20;;;;;;5054072;28;20480;-79
2021/05/15 02:32:20;;;;;;;11.10;8.82;;;12.00;99.20;;;;;;5058426;28;20685;-79
2021/05/15 02:34:46;;;;;;;11.18;9.20;;;12.00;99.20;;;;;;5058456;28;20021;-80
2021/05/15 02:37:11;;;;;;;12.35;8.90;;;11.90;99.20;;;;;;5056953;28;20040;-79
2021/05/15 02:39:37;;;;;;;10.52;9.00;;;11.90;99.30;;;;;;5057747;28;20025;-79
2021/05/15 02:42:03;;;;;;;10.15;8.45;;;11.90;99.20;;;;;;5055989;28;20361;-79
2021/05/15 02:44:28;;;;;;;12.07;9.23;;;11.90;99.10;;;;;;5056006;28;20048;-79
2021/05/15 02:46:54;;;;;;;11.98;9.10;;;11.90;99.20;;;;;;5054936;28;20032;-79
2021/05/15 02:49:19;;;;;;;12.27;9.15;;;11.80;99.40;;;;;;5056283;28;20032;-79
2021/05/15 02:51:45;;;;;;;10.57;8.80;;;11.70;99.50;;;;;;5058492;28;20032;-80
2021/05/15 02:54:10;;;;;;;12.00;8.80;;;11.80;99.40;;;;;;5056702;28;20033;-80
2021/05/15 02:56:36;;;;;;;11.93;8.63;;;11.90;99.20;;;;;;5057336;28;20028;-79
2021/05/15 02:59:02;;;;;;;11.48;9.45;;;11.80;99.20;;;;;;5058469;28;20029;-79
2021/05/15 03:01:27;;;;;;;11.00;8.98;;;11.70;99.40;;;;;;5055237;28;20032;-79
2021/05/15 03:03:53;;;;;;;12.10;9.90;;;11.70;99.50;;;;;;5057832;28;20484;-79
2021/05/15 03:06:18;;;;;;;9.88;8.55;;;11.70;99.40;;;;;;5054492;28;20021;-80
2021/05/15 03:08:44;;;;;;;11.35;8.55;;;11.70;99.30;;;;;;5056174;28;20494;-80
2021/05/15 03:11:11;;;;;;;9.20;8.10;;;11.70;99.30;;;;;;5055050;28;20016;-80
2021/05/15 03:13:36;;;;;;;14.25;10.52;;;11.70;99.20;;;;;;5054975;28;20024;-80
2021/05/15 03:16:02;;;;;;;15.70;12.18;;;11.70;99.20;;;;;;5058757;28;20100;-80
2021/05/15 03:18:27;;;;;;;18.58;15.18;;;11.70;99.10;;;;;;5056576;28;20036;-79
2021/05/15 03:20:53;;;;;;;18.90;14.15;;;11.60;99.20;;;;;;5057415;28;20497;-79
2021/05/15 03:23:18;;;;;;;14.68;11.60;;;11.60;99.30;;;;;;5055733;28;20025;-79
2021/05/15 03:25:44;;;;;;;20.00;13.25;;;11.60;99.30;;;;;;5054634;28;20104;-79
2021/05/15 03:28:09;;;;;;;16.55;13.13;;;11.60;99.30;;;;;;5054744;28;20028;-79
2021/05/15 03:30:35;;;;;;;14.20;11.15;;;11.70;99.20;;;;;;5054407;28;20484;-79
2021/05/15 03:33:00;;;;;;;11.82;9.68;;;11.60;99.20;;;;;;5058797;28;20264;-79
2021/05/15 03:35:27;;;;;;;12.50;10.05;;;11.60;99.20;;;;;;5071239;28;20515;-80
2021/05/15 03:37:53;;;;;;;12.13;9.18;;;11.60;99.10;;;;;;5057377;28;20025;-80
2021/05/15 03:40:19;;;;;;;11.48;9.88;;;11.60;99.10;;;;;;5055213;28;20031;-79
2021/05/15 03:42:48;;;;;;;14.20;9.75;;;11.60;99.10;;;;;;5055690;28;20021;-80
2021/05/15 03:45:14;;;;;;;12.15;10.20;;;11.60;99.10;;;;;;5054187;28;20044;-80
2021/05/15 03:47:41;;;;;;;14.35;11.75;;;11.60;99.00;;;;;;5053690;28;20075;-79
2021/05/15 03:50:07;;;;;;;12.30;9.70;;;11.70;99.00;;;;;;5060551;28;20036;-80
2021/05/15 03:52:33;;;;;;;15.70;12.27;;;11.70;99.00;;;;;;5055697;28;20020;-79
2021/05/15 03:54:59;;;;;;;14.90;11.98;;;11.70;99.10;;;;;;5057161;28;20021;-79
2021/05/15 03:57:25;;;;;;;15.30;9.80;;;11.70;99.10;;;;;;5054907;28;20040;-80
2021/05/15 03:59:50;;;;;;;12.15;10.15;;;11.60;99.10;;;;;;5055184;28;20016;-80
2021/05/15 04:02:21;;;;;;;13.30;10.18;;;11.60;99.30;;;;;;5069891;28;20078;-79
2021/05/15 04:04:46;;;;;;;12.55;10.38;;;11.60;99.40;;;;;;5055315;28;20013;-79
2021/05/15 04:07:12;;;;;;;13.30;10.20;;;11.60;99.50;;;;;;5055653;28;20016;-79
2021/05/15 04:09:37;;;;;;;11.93;8.75;;;11.70;99.40;;;;;;5054093;28;20498;-79
2021/05/15 04:12:03;;;;;;;16.63;11.55;;;11.70;99.40;;;;;;5054176;28;20100;-79
2021/05/15 04:14:42;;;;;;;15.75;10.85;;;11.70;99.40;;;;;;5056117;28;20017;-79
2021/05/15 04:19:34;;;;;;;16.92;13.75;;;11.50;99.90;;;;;;5055667;28;20112;-80
2021/05/15 04:22:00;;;;;;;17.52;13.90;;;11.50;99.90;;;;;;5054786;28;20159;-79
2021/05/15 04:24:26;;;;;;;22.00;17.83;;;11.60;99.90;;;;;;5055510;28;20528;-79
2021/05/15 04:26:53;;;;;;;27.10;20.83;;;11.60;99.90;;;;;;5053570;28;20020;-80
2021/05/15 04:29:19;;;;;;;27.67;22.50;;;11.60;99.90;;;;;;5053436;28;20045;-79
2021/05/15 04:31:45;;;;;;;38.28;27.25;;;11.60;99.90;;;;;;5055803;28;20013;-79
2021/05/15 04:34:10;;;;;;;40.35;29.73;;;11.40;99.90;;;;;;5057278;28;20021;-79
2021/05/15 04:36:36;;;;;;;37.85;27.35;;;11.20;99.90;;;;;;5054777;28;20531;-79
2021/05/15 04:39:02;;;;;;;56.38;33.58;;;11.10;99.90;;;;;;5069790;28;20478;-79
2021/05/15 04:41:28;;;;;;;53.97;32.50;;;11.10;99.90;;;;;;5056555;28;20036;-79
2021/05/15 04:43:53;;;;;;;55.35;34.13;;;11.00;99.90;;;;;;5053595;28;20025;-79
2021/05/15 04:46:19;;;;;;;63.95;38.92;;;10.90;99.90;;;;;;5068856;28;20021;-79
2021/05/15 04:48:45;;;;;;;65.78;38.40;;;10.80;99.90;;;;;;5070948;28;20017;-79
2021/05/15 04:51:11;;;;;;;62.85;38.38;;;10.70;99.90;;;;;;5056963;28;20087;-79
2021/05/15 04:53:37;;;;;;;57.25;35.80;;;10.70;99.90;;;;;;5054586;28;20079;-79
2021/05/15 04:56:04;;;;;;;63.38;38.95;;;10.60;99.90;;;;;;5054271;28;20462;-79
2021/05/15 04:58:29;;;;;;;73.15;40.25;;;10.60;99.90;;;;;;5053685;28;20082;-80
2021/05/15 05:00:54;;;;;;;64.72;38.92;;;10.60;99.90;;;;;;5068478;28;20025;-79
2021/05/15 05:03:20;;;;;;;70.65;41.30;;;10.60;99.90;;;;;;5054578;28;20021;-79
2021/05/15 05:05:46;;;;;;;75.85;41.65;;;10.50;99.90;;;;;;5053977;28;20017;-79
2021/05/15 05:08:11;;;;;;;70.90;39.92;;;10.50;99.90;;;;;;5052165;28;20025;-79
2021/05/15 05:10:37;;;;;;;69.35;38.85;;;10.50;99.90;;;;;;5052390;28;20025;-79
2021/05/15 05:13:06;;;;;;;69.47;39.70;;;10.50;99.90;;;;;;5068288;28;20052;-79
2021/05/15 05:15:32;;;;;;;60.17;36.50;;;10.50;99.90;;;;;;5060020;28;20456;-83
2021/05/15 05:17:58;;;;;;;61.92;36.85;;;10.50;99.90;;;;;;5052345;28;20546;-79
2021/05/15 05:20:24;;;;;;;67.40;36.30;;;10.50;99.90;;;;;;5064328;28;20382;-79
2021/05/15 05:22:50;;;;;;;71.60;37.78;;;10.50;99.90;;;;;;5071660;28;20031;-79
2021/05/15 05:25:17;;;;;;;73.85;41.13;;;10.60;99.90;;;;;;5072571;28;20027;-79
2021/05/15 05:27:47;;;;;;;63.65;37.47;;;10.50;99.90;;;;;;5071856;28;20029;-79
2021/05/15 05:30:15;;;;;;;68.53;38.63;;;10.50;99.90;;;;;;5072992;28;20026;-79
2021/05/15 05:32:42;;;;;;;74.43;41.35;;;10.50;99.90;;;;;;5073091;28;20066;-79
2021/05/15 05:35:08;;;;;;;76.80;41.30;;;10.50;99.90;;;;;;5072873;28;20041;-79
2021/05/15 05:37:34;;;;;;;72.97;39.95;;;10.50;99.90;;;;;;5072979;28;20101;-79
2021/05/15 05:39:59;;;;;;;73.18;38.58;;;10.50;99.90;;;;;;5071511;28;20500;-79
2021/05/15 05:42:25;;;;;;;79.65;43.85;;;10.50;99.90;;;;;;5072694;28;20032;-79
2021/05/15 05:44:50;;;;;;;69.05;38.60;;;10.50;99.90;;;;;;5072910;28;20025;-79
2021/05/15 05:47:16;;;;;;;65.97;38.05;;;10.50;99.90;;;;;;5072850;28;20483;-79
2021/05/15 05:49:41;;;;;;;74.18;39.88;;;10.50;99.90;;;;;;5072865;28;20024;-79
2021/05/15 05:52:07;;;;;;;68.25;37.88;;;10.50;99.90;;;;;;5071622;28;20074;-79
2021/05/15 05:54:32;;;;;;;62.70;36.50;;;10.50;99.90;;;;;;5071391;28;20047;-79
2021/05/15 05:56:58;;;;;;;65.53;38.78;;;10.60;99.90;;;;;;5072697;28;20029;-79
2021/05/15 05:59:23;;;;;;;63.00;36.55;;;10.60;99.90;;;;;;5088266;28;20415;-79
2021/05/15 06:01:49;;;;;;;59.60;35.58;;;10.60;99.90;;;;;;5072650;28;20029;-79
2021/05/15 06:04:14;;;;;;;60.10;35.30;;;10.70;99.90;;;;;;5072824;28;20044;-79
2021/05/15 06:06:40;;;;;;;62.47;34.80;;;10.60;99.90;;;;;;5088198;28;20048;-79
2021/05/15 06:09:06;;;;;;;53.38;32.80;;;10.60;99.90;;;;;;5071221;28;20453;-79
2021/05/15 06:11:31;;;;;;;56.35;33.95;;;10.70;99.90;;;;;;5072739;28;20081;-79
2021/05/15 06:13:57;;;;;;;53.15;29.35;;;10.70;99.90;;;;;;5072651;28;20032;-79
2021/05/15 06:16:22;;;;;;;53.33;32.10;;;10.70;99.90;;;;;;5072539;28;20155;-79
2021/05/15 06:18:48;;;;;;;50.58;30.67;;;10.70;99.90;;;;;;5072565;28;20032;-79
2021/05/15 06:21:13;;;;;;;52.65;31.05;;;10.70;99.90;;;;;;5072359;28;20089;-80
2021/05/15 06:23:39;;;;;;;53.78;32.08;;;10.70;99.90;;;;;;5071265;28;20074;-79
2021/05/15 06:26:08;;;;;;;52.60;30.23;;;10.70;99.90;;;;;;5074403;28;20021;-80
2021/05/15 06:28:37;;;;;;;52.47;31.77;;;10.60;99.90;;;;;;5076209;28;20017;-80
2021/05/15 06:31:04;;;;;;;53.17;32.23;;;10.70;99.90;;;;;;5075863;28;20085;-80
2021/05/15 06:33:30;;;;;;;53.47;32.33;;;10.70;99.90;;;;;;5073983;28;20648;-80
2021/05/15 06:35:56;;;;;;;51.38;30.95;;;10.70;99.90;;;;;;5074644;28;20078;-80
2021/05/15 06:38:22;;;;;;;52.83;32.17;;;10.70;99.90;;;;;;5074195;28;20040;-80
2021/05/15 06:40:47;;;;;;;55.13;33.25;;;10.70;99.90;;;;;;5072651;28;20047;-80
2021/05/15 06:43:13;;;;;;;53.42;32.72;;;10.80;99.90;;;;;;5075634;28;20460;-80
2021/05/15 06:45:39;;;;;;;51.78;33.63;;;10.90;99.90;;;;;;5075816;28;20480;-80
2021/05/15 06:48:05;;;;;;;52.78;33.00;;;10.90;99.90;;;;;;5075928;28;20024;-80
2021/05/15 06:50:30;;;;;;;51.10;31.83;;;11.00;99.90;;;;;;5075362;28;20043;-80
2021/05/15 06:52:56;;;;;;;55.55;33.00;;;11.00;99.90;;;;;;5075631;28;20024;-80
2021/05/15 06:55:23;;;;;;;51.78;32.08;;;11.10;99.90;;;;;;5075107;28;20041;-80
2021/05/15 06:57:49;;;;;;;47.85;30.95;;;11.10;99.90;;;;;;5075191;28;20059;-77
2021/05/15 07:00:15;;;;;;;50.55;30.90;;;11.20;99.90;;;;;;5074798;28;20052;-77
2021/05/15 07:02:41;;;;;;;49.22;30.60;;;11.20;99.90;;;;;;5075185;28;20074;-77
2021/05/15 07:05:07;;;;;;;47.17;28.83;;;11.30;99.90;;;;;;5075123;28;20017;-76
2021/05/15 07:07:33;;;;;;;48.58;30.25;;;11.30;99.90;;;;;;5074851;28;20024;-77
2021/05/15 07:09:58;;;;;;;46.03;30.30;;;11.40;99.90;;;;;;5074911;28;20032;-76
2021/05/15 07:12:24;;;;;;;52.53;30.48;;;11.40;99.90;;;;;;5074824;28;20028;-77
2021/05/15 07:14:51;;;;;;;49.28;30.08;;;11.30;99.90;;;;;;5074845;28;20090;-77
2021/05/15 07:17:24;;;;;;;48.30;30.63;;;11.30;99.90;;;;;;5074865;28;20021;-78
2021/05/15 07:19:50;;;;;;;50.58;31.35;;;11.30;99.90;;;;;;5074349;28;20020;-77
2021/05/15 07:22:15;;;;;;;42.70;28.63;;;11.40;99.90;;;;;;5074213;28;20097;-77
2021/05/15 07:24:41;;;;;;;46.58;30.92;;;11.40;99.90;;;;;;5091145;28;20028;-77
2021/05/15 07:27:06;;;;;;;45.58;30.17;;;11.40;99.90;;;;;;5087005;28;20016;-77
2021/05/15 07:29:32;;;;;;;47.90;31.05;;;11.40;99.90;;;;;;5074867;28;20372;-77
2021/05/15 07:31:57;;;;;;;44.10;29.95;;;11.40;99.90;;;;;;5074791;28;20024;-77
2021/05/15 07:34:23;;;;;;;42.97;28.30;;;11.50;99.90;;;;;;5073534;28;20025;-77
2021/05/15 07:36:48;;;;;;;46.92;28.73;;;11.50;99.90;;;;;;5073509;28;20052;-77
2021/05/15 07:39:14;;;;;;;42.65;28.15;;;11.60;99.90;;;;;;5074559;28;20028;-77
2021/05/15 07:41:39;;;;;;;44.60;29.10;;;11.60;99.90;;;;;;5074478;28;20050;-77
2021/05/15 07:44:05;;;;;;;40.83;27.70;;;11.60;99.90;;;;;;5073486;28;20012;-77
2021/05/15 07:46:31;;;;;;;47.08;29.70;;;11.70;99.90;;;;;;5074582;28;20510;-77
2021/05/15 07:48:56;;;;;;;41.80;28.63;;;11.70;99.90;;;;;;5073771;28;20031;-77
2021/05/15 07:51:22;;;;;;;42.25;28.83;;;11.70;99.90;;;;;;5073925;28;20086;-77
2021/05/15 07:53:53;;;;;;;41.33;27.48;;;11.80;99.90;;;;;;5073878;28;20035;-78
2021/05/15 07:56:19;;;;;;;39.25;27.15;;;12.00;99.90;;;;;;5073903;28;20096;-78
2021/05/15 07:58:45;;;;;;;37.38;26.60;;;12.20;99.90;;;;;;5072493;28;20123;-78
2021/05/15 08:01:11;;;;;;;37.17;26.80;;;12.40;99.90;;;;;;5072435;28;20158;-77
2021/05/15 08:03:36;;;;;;;34.03;25.48;;;12.40;99.80;;;;;;5073722;28;20103;-77
2021/05/15 08:06:03;;;;;;;40.17;29.10;;;12.50;99.40;;;;;;5073708;28;20495;-77
2021/05/15 08:08:28;;;;;;;39.85;28.30;;;12.50;99.10;;;;;;5073720;28;20021;-77
2021/05/15 08:10:54;;;;;;;41.53;29.48;;;12.50;98.50;;;;;;5072297;28;20020;-77
2021/05/15 08:13:20;;;;;;;35.50;26.08;;;12.50;98.20;;;;;;5073395;28;20051;-78
2021/05/15 08:15:46;;;;;;;44.83;31.92;;;12.50;98.30;;;;;;5072150;28;20042;-78
2021/05/15 08:18:12;;;;;;;39.83;29.55;;;12.60;97.90;;;;;;5073411;28;20048;-78
2021/05/15 08:20:38;;;;;;;43.25;30.33;;;12.60;97.60;;;;;;5073325;28;20035;-77
2021/05/15 08:23:03;;;;;;;40.95;28.92;;;12.60;96.80;;;;;;5073514;28;20099;-77
2021/05/15 08:25:29;;;;;;;42.17;31.15;;;12.50;96.80;;;;;;5072097;28;20112;-77
2021/05/15 08:28:00;;;;;;;38.10;28.60;;;12.40;96.40;;;;;;5073287;28;20119;-78
2021/05/15 08:30:29;;;;;;;43.53;31.48;;;12.40;96.20;;;;;;5073381;28;20020;-77
2021/05/15 08:32:55;;;;;;;38.97;28.58;;;12.40;96.60;;;;;;5073210;28;20008;-77
2021/05/15 08:35:23;;;;;;;39.40;27.70;;;12.50;95.50;;;;;;5073051;28;20602;-77
2021/05/15 08:37:49;;;;;;;35.33;26.55;;;12.60;95.50;;;;;;5073300;28;20016;-77
2021/05/15 08:40:15;;;;;;;35.83;27.45;;;12.70;95.20;;;;;;5071731;28;20052;-78
2021/05/15 08:42:42;;;;;;;37.53;26.60;;;12.80;94.40;;;;;;5071822;28;20041;-77
2021/05/15 08:45:13;;;;;;;32.63;24.00;;;12.70;94.10;;;;;;5073181;28;20008;-77
2021/05/15 08:47:41;;;;;;;33.05;25.20;;;12.80;94.30;;;;;;5070387;28;20021;-78
2021/05/15 08:50:09;;;;;;;36.53;26.35;;;12.80;94.70;;;;;;5072956;28;20024;-77
2021/05/15 08:52:40;;;;;;;33.42;25.27;;;12.80;94.40;;;;;;5073047;28;20016;-77
2021/05/15 08:55:12;;;;;;;38.13;27.70;;;12.80;94.20;;;;;;5072951;28;20028;-77
2021/05/15 08:57:37;;;;;;;32.55;24.83;;;12.70;94.30;;;;;;5072927;28;20099;-77
2021/05/15 09:00:10;;;;;;;37.00;25.70;;;12.70;94.60;;;;;;5072765;28;20515;-77
2021/05/15 09:02:36;;;;;;;33.83;25.67;;;12.80;95.30;;;;;;5072951;28;20024;-77
2021/05/15 09:05:02;;;;;;;33.92;25.13;;;12.80;94.90;;;;;;5072812;28;20013;-77
2021/05/15 09:07:27;;;;;;;35.58;25.75;;;13.00;95.30;;;;;;5071629;28;20074;-77
2021/05/15 09:09:53;;;;;;;37.50;25.30;;;13.10;95.00;;;;;;5072775;28;20095;-77
2021/05/15 09:12:18;;;;;;;31.30;24.27;;;13.20;94.40;;;;;;5072811;28;20055;-77
2021/05/15 09:14:44;;;;;;;36.25;24.58;;;13.20;94.00;;;;;;5071422;28;20027;-77
2021/05/15 09:17:14;;;;;;;33.90;25.00;;;13.30;94.40;;;;;;5072606;28;20028;-77
2021/05/15 09:19:50;;;;;;;36.38;24.65;;;13.50;93.80;;;;;;5072449;28;20074;-77
2021/05/15 09:22:15;;;;;;;32.42;23.95;;;13.60;94.20;;;;;;5071743;28;20063;-77
2021/05/15 09:24:44;;;;;;;36.78;27.38;;;13.90;93.50;;;;;;5073128;28;20056;-77
2021/05/15 09:27:12;;;;;;;33.55;26.65;;;14.10;93.90;;;;;;5071735;28;20028;-77
2021/05/15 09:29:46;;;;;;;38.97;26.90;;;14.10;94.30;;;;;;5072989;28;20066;-77
2021/05/15 09:32:31;;;;;;;35.00;26.25;;;14.20;94.10;;;;;;5073113;28;20021;-77
2021/05/15 09:34:58;;;;;;;36.45;27.10;;;14.30;93.30;;;;;;5072875;28;20040;-77
2021/05/15 09:37:38;;;;;;;38.17;26.67;;;14.60;93.70;;;;;;5072474;28;20089;-77
2021/05/15 09:40:19;;;;;;;34.42;25.90;;;14.70;92.00;;;;;;5072939;28;20435;-77
2021/05/15 09:42:50;;;;;;;36.15;24.70;;;15.10;92.00;;;;;;5072003;28;20021;-77
2021/05/15 09:45:22;;;;;;;27.85;20.95;;;15.40;91.40;;;;;;5068996;28;20154;-77
2021/05/15 09:48:08;;;;;;;27.98;21.17;;;15.70;91.10;;;;;;5071662;28;20389;-77
2021/05/15 09:50:37;;;;;;;31.33;21.85;;;16.10;89.90;;;;;;5071595;28;20033;-77
2021/05/15 09:53:11;;;;;;;26.38;21.92;;;16.50;89.90;;;;;;5072890;28;20130;-78
2021/05/15 09:55:38;;;;;;;24.00;18.23;;;16.80;85.30;;;;;;5072838;28;20472;-79
2021/05/15 09:58:06;;;;;;;25.00;19.65;;;17.50;84.60;;;;;;5072897;28;20031;-79
2021/05/15 10:00:40;;;;;;;19.42;15.23;;;18.40;80.20;;;;;;5075140;28;20018;-79
2021/05/15 10:03:16;;;;;;;20.48;17.08;;;19.70;78.90;;;;;;5076799;28;20491;-79
2021/05/15 10:05:41;;;;;;;17.15;14.30;;;21.00;72.30;;;;;;5076138;28;20027;-78
2021/05/15 10:08:07;;;;;;;19.25;15.60;;;21.70;64.60;;;;;;5075015;28;20021;-78
2021/05/15 10:10:33;;;;;;;14.80;11.43;;;21.60;62.20;;;;;;5076207;28;20051;-78
2021/05/15 10:13:00;;;;;;;17.95;14.00;;;22.70;62.60;;;;;;5075213;28;20113;-79
2021/05/15 10:15:26;;;;;;;13.65;11.75;;;22.70;57.30;;;;;;5076220;28;20520;-78
2021/05/15 10:17:52;;;;;;;16.98;13.45;;;22.60;57.50;;;;;;5076017;28;20026;-77
2021/05/15 10:20:18;;;;;;;15.43;13.52;;;22.20;57.20;;;;;;5075745;28;20024;-77
2021/05/15 10:22:45;;;;;;;17.35;14.05;;;21.50;57.00;;;;;;5074482;28;20020;-78
2021/05/15 10:25:15;;;;;;;17.85;14.75;;;20.80;57.80;;;;;;5076158;28;20031;-77
2021/05/15 10:27:42;;;;;;;21.33;16.88;;;20.30;59.10;;;;;;5075087;28;20031;-79
2021/05/15 10:30:13;;;;;;;15.85;13.13;;;19.70;59.60;;;;;;5075967;28;20439;-77
2021/05/15 10:32:55;;;;;;;18.42;15.50;;;19.20;61.60;;;;;;5075012;28;20028;-78
2021/05/15 10:35:43;;;;;;;20.83;15.77;;;18.70;63.80;;;;;;5075859;28;20384;-76
2021/05/15 10:38:13;;;;;;;20.00;15.73;;;18.60;65.00;;;;;;5077434;28;20020;-83
2021/05/15 10:40:50;;;;;;;22.40;18.48;;;18.30;66.20;;;;;;5075260;28;20064;-76
2021/05/15 10:43:36;;;;;;;22.52;18.15;;;18.00;65.50;;;;;;5073713;28;20536;-76
2021/05/15 10:46:18;;;;;;;24.50;19.02;;;17.50;68.40;;;;;;5070947;28;20025;-76
2021/05/15 10:48:58;;;;;;;26.40;20.42;;;17.10;68.60;;;;;;5055898;28;20021;-76
2021/05/15 10:51:52;;;;;;;24.38;18.77;;;16.90;70.20;;;;;;5055734;28;20142;-76
2021/05/15 10:54:29;;;;;;;24.48;19.17;;;16.70;71.20;;;;;;5053013;28;20584;-75
2021/05/15 10:57:04;;;;;;;23.98;17.70;;;16.70;72.10;;;;;;5055719;28;20032;-76
2021/05/15 10:59:31;;;;;;;20.10;15.32;;;16.90;72.40;;;;;;5055680;28;20103;-76
2021/05/15 11:02:01;;;;;;;23.50;16.45;;;17.50;72.80;;;;;;5055350;28;20103;-75
2021/05/15 11:04:32;;;;;;;21.65;17.42;;;17.60;70.80;;;;;;5057762;28;20433;-75
2021/05/15 11:07:11;;;;;;;22.70;16.75;;;17.20;69.50;;;;;;5074607;28;20036;-75
2021/05/15 11:09:49;;;;;;;25.77;19.02;;;17.00;70.50;;;;;;5074704;28;20376;-76
2021/05/15 11:12:15;;;;;;;25.02;18.73;;;16.90;71.50;;;;;;5073483;28;20060;-76
2021/05/15 11:14:46;;;;;;;22.60;16.95;;;16.60;71.70;;;;;;5074240;28;20027;-75
2021/05/15 11:17:23;;;;;;;23.70;18.02;;;16.50;72.20;;;;;;5073357;28;20036;-75
2021/05/15 11:20:08;;;;;;;22.08;16.80;;;16.50;72.80;;;;;;5072821;28;20089;-75
2021/05/15 11:22:51;;;;;;;29.42;22.08;;;16.40;73.60;;;;;;5073351;28;20059;-75
2021/05/15 11:25:18;;;;;;;17.90;13.10;;;16.10;73.10;;;;;;5073781;28;20013;-74
2021/05/15 11:27:52;;;;;;;9.88;5.22;;;15.60;74.70;;;;;;5071931;28;20028;-77
2021/05/15 11:30:29;;;;;;;6.55;2.90;;;14.40;89.40;;;;;;5074572;28;20016;-79
2021/05/15 11:33:05;;;;;;;8.05;3.92;;;12.60;96.40;;;;;;5073294;28;20017;-78
2021/05/15 11:35:42;;;;;;;7.60;4.55;;;11.70;99.90;;;;;;5071208;28;20120;-78
2021/05/15 11:38:11;;;;;;;5.35;3.38;;;11.30;99.90;;;;;;5072226;28;20017;-78
2021/05/15 11:40:58;;;;;;;7.10;3.60;;;11.10;99.90;;;;;;5074292;28;20023;-77
2021/05/15 11:43:29;;;;;;;9.05;3.35;;;11.30;99.90;;;;;;5074167;28;20008;-77
2021/05/15 11:45:56;;;;;;;4.65;2.75;;;11.40;99.90;;;;;;5073022;28;20028;-76
2021/05/15 11:48:24;;;;;;;4.47;2.90;;;11.70;99.90;;;;;;5074101;28;20017;-77
2021/05/15 11:51:11;;;;;;;3.88;2.55;;;12.20;99.90;;;;;;5074145;28;20017;-77
2021/05/15 11:53:42;;;;;;;3.20;1.90;;;12.80;99.90;;;;;;5071924;28;20422;-78
2021/05/15 11:56:19;;;;;;;3.88;1.83;;;13.00;99.90;;;;;;5071821;28;20024;-77
2021/05/15 11:58:53;;;;;;;2.67;1.48;;;12.80;99.90;;;;;;5071414;28;20016;-77
2021/05/15 12:01:31;;;;;;;4.10;2.08;;;12.50;99.90;;;;;;5073893;28;20032;-77
2021/05/15 12:04:19;;;;;;;5.32;2.20;;;12.40;99.90;;;;;;5072991;28;20014;-78
2021/05/15 12:06:48;;;;;;;2.03;1.50;;;12.40;99.90;;;;;;5070807;28;20039;-81
2021/05/15 12:09:15;;;;;;;2.93;1.60;;;12.40;99.90;;;;;;5072255;28;20013;-77
2021/05/15 12:11:42;;;;;;;1.45;1.10;;;12.50;99.90;;;;;;5073505;28;20254;-76
2021/05/15 12:14:07;;;;;;;1.67;1.38;;;12.60;99.90;;;;;;5073797;28;20475;-76
2021/05/15 12:16:35;;;;;;;2.25;1.50;;;12.70;99.90;;;;;;5073788;28;20073;-76
2021/05/15 12:19:02;;;;;;;3.45;2.00;;;12.80;99.90;;;;;;5074085;28;20025;-76
2021/05/15 12:21:27;;;;;;;3.05;2.25;;;13.10;99.90;;;;;;5071519;28;20048;-76
2021/05/15 12:24:00;;;;;;;5.00;3.33;;;13.60;99.90;;;;;;5073233;28;20384;-76
2021/05/15 12:26:25;;;;;;;3.25;2.53;;;14.20;99.90;;;;;;5073874;28;20039;-75
2021/05/15 12:28:51;;;;;;;1.92;1.52;;;14.70;99.90;;;;;;5073861;28;20484;-76
2021/05/15 12:31:25;;;;;;;2.00;1.50;;;15.00;99.90;;;;;;5073725;28;20499;-76
2021/05/15 12:33:52;;;;;;;3.15;1.40;;;15.40;99.90;;;;;;5072309;28;20531;-76
2021/05/15 12:36:18;;;;;;;3.15;1.90;;;15.70;99.90;;;;;;5072753;28;20110;-79
2021/05/15 12:38:51;;;;;;;3.40;1.80;;;15.80;99.90;;;;;;5073139;28;20035;-79